sensor_id;sensor_type;location;lat;lon;timestamp;temperature;humidity
13091;DHT22;6611;52.604;13.438;2023-05-10T00:02:01;11.08;62.26
13091;DHT22;6611;52.604;13.438;2023-05-10T00:07:03;11.06;62.35
13091;DHT22;6611;52.604;13.438;2023-05-10T00:12:06;11.06;62.43
13091;DHT22;6611;52.604;13.438;2023-05-10T00:17:07;10.89;63.07
13091;DHT22;6611;52.604;13.438;2023-05-10T00:22:09;10.89;63.10
13091;DHT22;6611;52.604;13.438;2023-05-10T00:27:12;10.90;63.20
13091;DHT22;6611;52.604;13.438;2023-05-10T00:32:14;10.69;64.55
13091;DHT22;6611;52.604;13.438;2023-05-10T00:37:16;10.72;64.37
13091;DHT22;6611;52.604;13.438;2023-05-10T00:42:19;10.69;64.60
13091;DHT22;6611;52.604;13.438;2023-05-10T00:47:21;10.52;65.49
13091;DHT22;6611;52.604;13.438;2023-05-10T00:52:23;10.51;65.47
13091;DHT22;6611;52.604;13.438;2023-05-10T00:57:27;10.51;65.51
13091;DHT22;6611;52.604;13.438;2023-05-10T01:02:29;10.49;65.78
13091;DHT22;6611;52.604;13.438;2023-05-10T01:07:31;10.48;65.79
13091;DHT22;6611;52.604;13.438;2023-05-10T01:12:35;10.37;66.28
13091;DHT22;6611;52.604;13.438;2023-05-10T01:17:39;10.45;66.24
13091;DHT22;6611;52.604;13.438;2023-05-10T01:22:54;10.24;66.82
13091;DHT22;6611;52.604;13.438;2023-05-10T01:28:12;10.24;66.99
13091;DHT22;6611;52.604;13.438;2023-05-10T01:33:19;10.27;66.75
13091;DHT22;6611;52.604;13.438;2023-05-10T01:38:26;10.31;66.68
13091;DHT22;6611;52.604;13.438;2023-05-10T01:43:35;10.25;66.91
13091;DHT22;6611;52.604;13.438;2023-05-10T01:48:47;10.21;67.15
13091;DHT22;6611;52.604;13.438;2023-05-10T01:53:49;10.11;67.31
13091;DHT22;6611;52.604;13.438;2023-05-10T01:58:53;10.04;67.77
13091;DHT22;6611;52.604;13.438;2023-05-10T02:03:58;10.10;67.40
13091;DHT22;6611;52.604;13.438;2023-05-10T02:09:01;10.17;66.83
13091;DHT22;6611;52.604;13.438;2023-05-10T02:14:03;10.17;67.05
13091;DHT22;6611;52.604;13.438;2023-05-10T02:19:09;10.14;67.10
13091;DHT22;6611;52.604;13.438;2023-05-10T02:24:11;10.24;66.40
13091;DHT22;6611;52.604;13.438;2023-05-10T02:29:14;10.18;66.68
13091;DHT22;6611;52.604;13.438;2023-05-10T02:34:19;10.11;66.84
13091;DHT22;6611;52.604;13.438;2023-05-10T02:39:22;9.97;67.40
13091;DHT22;6611;52.604;13.438;2023-05-10T02:44:26;9.93;67.43
13091;DHT22;6611;52.604;13.438;2023-05-10T02:49:32;9.98;67.03
13091;DHT22;6611;52.604;13.438;2023-05-10T02:54:39;10.07;66.52
13091;DHT22;6611;52.604;13.438;2023-05-10T02:59:42;9.86;67.36
13091;DHT22;6611;52.604;13.438;2023-05-10T03:04:46;9.96;66.95
13091;DHT22;6611;52.604;13.438;2023-05-10T03:09:49;9.89;66.85
13091;DHT22;6611;52.604;13.438;2023-05-10T03:14:56;9.93;66.40
13091;DHT22;6611;52.604;13.438;2023-05-10T03:20:04;9.85;66.84
13091;DHT22;6611;52.604;13.438;2023-05-10T03:25:10;9.98;66.25
13091;DHT22;6611;52.604;13.438;2023-05-10T03:30:13;10.00;66.05
13091;DHT22;6611;52.604;13.438;2023-05-10T03:35:16;10.01;66.16
13091;DHT22;6611;52.604;13.438;2023-05-10T03:40:17;10.08;65.68
13091;DHT22;6611;52.604;13.438;2023-05-10T03:45:19;10.04;65.77
13091;DHT22;6611;52.604;13.438;2023-05-10T03:50:22;10.08;65.82
13091;DHT22;6611;52.604;13.438;2023-05-10T03:55:24;10.07;65.58
13091;DHT22;6611;52.604;13.438;2023-05-10T04:00:26;10.10;65.54
13091;DHT22;6611;52.604;13.438;2023-05-10T04:05:29;10.24;65.13
13091;DHT22;6611;52.604;13.438;2023-05-10T04:10:30;10.25;64.95
13091;DHT22;6611;52.604;13.438;2023-05-10T04:15:32;10.34;64.86
13091;DHT22;6611;52.604;13.438;2023-05-10T04:20:35;10.48;64.55
13091;DHT22;6611;52.604;13.438;2023-05-10T04:25:37;10.49;64.67
13091;DHT22;6611;52.604;13.438;2023-05-10T04:30:39;10.60;64.12
13091;DHT22;6611;52.604;13.438;2023-05-10T04:35:42;10.72;64.13
13091;DHT22;6611;52.604;13.438;2023-05-10T04:40:44;10.94;63.42
13091;DHT22;6611;52.604;13.438;2023-05-10T04:45:46;11.17;62.23
13091;DHT22;6611;52.604;13.438;2023-05-10T04:50:49;11.22;62.11
13091;DHT22;6611;52.604;13.438;2023-05-10T04:55:51;11.39;61.92
13091;DHT22;6611;52.604;13.438;2023-05-10T05:00:52;11.63;60.80
13091;DHT22;6611;52.604;13.438;2023-05-10T05:05:55;12.22;59.37
13091;DHT22;6611;52.604;13.438;2023-05-10T05:10:57;12.79;57.36
13091;DHT22;6611;52.604;13.438;2023-05-10T05:16:00;13.16;56.98
13091;DHT22;6611;52.604;13.438;2023-05-10T05:21:13;13.42;55.82
13091;DHT22;6611;52.604;13.438;2023-05-10T05:26:15;13.63;54.92
13091;DHT22;6611;52.604;13.438;2023-05-10T05:31:16;13.66;54.63
13091;DHT22;6611;52.604;13.438;2023-05-10T05:36:21;13.87;54.48
13091;DHT22;6611;52.604;13.438;2023-05-10T05:41:22;13.91;54.68
13091;DHT22;6611;52.604;13.438;2023-05-10T05:46:24;14.10;54.11
13091;DHT22;6611;52.604;13.438;2023-05-10T05:51:27;14.33;53.18
13091;DHT22;6611;52.604;13.438;2023-05-10T05:56:29;14.53;52.44
13091;DHT22;6611;52.604;13.438;2023-05-10T06:01:31;14.60;54.52
13091;DHT22;6611;52.604;13.438;2023-05-10T06:06:34;14.72;52.82
13091;DHT22;6611;52.604;13.438;2023-05-10T06:11:36;15.15;51.99
13091;DHT22;6611;52.604;13.438;2023-05-10T06:16:37;15.64;50.86
13091;DHT22;6611;52.604;13.438;2023-05-10T06:21:40;16.23;51.00
13091;DHT22;6611;52.604;13.438;2023-05-10T06:26:42;16.42;49.27
13091;DHT22;6611;52.604;13.438;2023-05-10T06:31:44;16.67;49.19
13091;DHT22;6611;52.604;13.438;2023-05-10T06:36:47;17.08;47.53
13091;DHT22;6611;52.604;13.438;2023-05-10T06:41:48;17.61;47.46
13091;DHT22;6611;52.604;13.438;2023-05-10T06:46:50;17.64;46.33
13091;DHT22;6611;52.604;13.438;2023-05-10T06:51:55;17.71;45.26
13091;DHT22;6611;52.604;13.438;2023-05-10T06:56:56;17.54;46.53
13091;DHT22;6611;52.604;13.438;2023-05-10T07:01:58;17.99;45.98
13091;DHT22;6611;52.604;13.438;2023-05-10T07:07:02;18.46;46.15
13091;DHT22;6611;52.604;13.438;2023-05-10T07:12:04;18.79;44.67
13091;DHT22;6611;52.604;13.438;2023-05-10T07:17:05;19.20;43.70
13091;DHT22;6611;52.604;13.438;2023-05-10T07:22:08;19.40;43.43
13091;DHT22;6611;52.604;13.438;2023-05-10T07:27:10;19.19;43.84
13091;DHT22;6611;52.604;13.438;2023-05-10T07:32:13;19.08;43.73
13091;DHT22;6611;52.604;13.438;2023-05-10T07:37:16;18.99;43.75
13091;DHT22;6611;52.604;13.438;2023-05-10T07:42:17;19.02;43.88
13091;DHT22;6611;52.604;13.438;2023-05-10T07:47:19;19.22;43.97
13091;DHT22;6611;52.604;13.438;2023-05-10T07:52:22;19.70;43.17
13091;DHT22;6611;52.604;13.438;2023-05-10T07:57:24;19.57;43.33
13091;DHT22;6611;52.604;13.438;2023-05-10T08:02:25;20.09;43.71
13091;DHT22;6611;52.604;13.438;2023-05-10T08:07:28;20.60;42.45
13091;DHT22;6611;52.604;13.438;2023-05-10T08:12:30;20.92;43.35
13091;DHT22;6611;52.604;13.438;2023-05-10T08:17:32;20.48;41.75
13091;DHT22;6611;52.604;13.438;2023-05-10T08:22:35;20.65;42.63
13091;DHT22;6611;52.604;13.438;2023-05-10T08:27:38;20.55;42.38
13091;DHT22;6611;52.604;13.438;2023-05-10T08:32:39;20.63;41.67
13091;DHT22;6611;52.604;13.438;2023-05-10T08:37:42;20.68;41.59
13091;DHT22;6611;52.604;13.438;2023-05-10T08:42:50;21.20;42.85
13091;DHT22;6611;52.604;13.438;2023-05-10T08:47:52;21.13;39.73
13091;DHT22;6611;52.604;13.438;2023-05-10T08:53:04;20.72;41.35
13091;DHT22;6611;52.604;13.438;2023-05-10T08:58:14;20.91;41.17
13091;DHT22;6611;52.604;13.438;2023-05-10T09:03:20;20.89;40.78
13091;DHT22;6611;52.604;13.438;2023-05-10T09:08:26;21.32;40.40
13091;DHT22;6611;52.604;13.438;2023-05-10T09:13:28;21.57;41.13
13091;DHT22;6611;52.604;13.438;2023-05-10T09:18:30;21.91;40.36
13091;DHT22;6611;52.604;13.438;2023-05-10T09:23:33;21.92;41.09
13091;DHT22;6611;52.604;13.438;2023-05-10T09:28:50;21.88;40.50
13091;DHT22;6611;52.604;13.438;2023-05-10T09:33:52;22.21;39.39
13091;DHT22;6611;52.604;13.438;2023-05-10T09:38:56;21.79;39.80
13091;DHT22;6611;52.604;13.438;2023-05-10T09:43:58;21.86;40.03
13091;DHT22;6611;52.604;13.438;2023-05-10T09:49:00;21.65;41.51
13091;DHT22;6611;52.604;13.438;2023-05-10T09:54:13;21.86;39.24
13091;DHT22;6611;52.604;13.438;2023-05-10T09:59:15;22.21;40.88
13091;DHT22;6611;52.604;13.438;2023-05-10T10:04:17;22.37;39.92
13091;DHT22;6611;52.604;13.438;2023-05-10T10:09:20;22.55;39.71
13091;DHT22;6611;52.604;13.438;2023-05-10T10:14:22;22.46;38.68
13091;DHT22;6611;52.604;13.438;2023-05-10T10:19:24;22.47;39.93
13091;DHT22;6611;52.604;13.438;2023-05-10T10:24:27;22.43;38.52
13091;DHT22;6611;52.604;13.438;2023-05-10T10:29:33;22.69;40.41
13091;DHT22;6611;52.604;13.438;2023-05-10T10:34:38;22.72;39.56
13091;DHT22;6611;52.604;13.438;2023-05-10T10:39:42;23.03;38.34
13091;DHT22;6611;52.604;13.438;2023-05-10T10:44:43;23.16;38.36
13091;DHT22;6611;52.604;13.438;2023-05-10T10:49:49;22.87;37.30
13091;DHT22;6611;52.604;13.438;2023-05-10T10:54:57;22.75;39.28
13091;DHT22;6611;52.604;13.438;2023-05-10T11:00:23;23.16;38.25
13091;DHT22;6611;52.604;13.438;2023-05-10T11:05:43;23.39;37.46
13091;DHT22;6611;52.604;13.438;2023-05-10T11:16:16;23.20;35.45
13091;DHT22;6611;52.604;13.438;2023-05-10T11:21:17;23.09;36.63
13091;DHT22;6611;52.604;13.438;2023-05-10T11:26:21;23.31;37.13
13091;DHT22;6611;52.604;13.438;2023-05-10T11:31:25;23.89;36.89
13091;DHT22;6611;52.604;13.438;2023-05-10T11:36:28;23.72;38.40
13091;DHT22;6611;52.604;13.438;2023-05-10T11:41:32;23.84;36.95
13091;DHT22;6611;52.604;13.438;2023-05-10T11:46:34;23.88;35.97
13091;DHT22;6611;52.604;13.438;2023-05-10T11:51:37;23.84;35.74
13091;DHT22;6611;52.604;13.438;2023-05-10T11:56:41;23.62;36.08
13091;DHT22;6611;52.604;13.438;2023-05-10T12:01:42;23.85;36.41
13091;DHT22;6611;52.604;13.438;2023-05-10T12:06:44;24.03;36.00
13091;DHT22;6611;52.604;13.438;2023-05-10T12:11:48;24.20;35.91
13091;DHT22;6611;52.604;13.438;2023-05-10T12:16:50;24.06;35.84
13091;DHT22;6611;52.604;13.438;2023-05-10T12:21:51;24.14;35.86
13091;DHT22;6611;52.604;13.438;2023-05-10T12:26:54;24.26;36.25
13091;DHT22;6611;52.604;13.438;2023-05-10T12:31:57;24.67;36.09
13091;DHT22;6611;52.604;13.438;2023-05-10T12:37:00;24.86;35.94
13091;DHT22;6611;52.604;13.438;2023-05-10T12:42:03;24.91;34.79
13091;DHT22;6611;52.604;13.438;2023-05-10T12:47:05;25.17;34.53
13091;DHT22;6611;52.604;13.438;2023-05-10T12:52:07;25.13;35.55
13091;DHT22;6611;52.604;13.438;2023-05-10T12:57:10;24.63;34.02
13091;DHT22;6611;52.604;13.438;2023-05-10T13:02:11;24.44;33.34
13091;DHT22;6611;52.604;13.438;2023-05-10T13:07:14;24.14;33.76
13091;DHT22;6611;52.604;13.438;2023-05-10T13:12:17;24.16;34.21
13091;DHT22;6611;52.604;13.438;2023-05-10T13:17:19;24.24;33.12
13091;DHT22;6611;52.604;13.438;2023-05-10T13:22:21;24.34;33.60
13091;DHT22;6611;52.604;13.438;2023-05-10T13:27:24;24.31;34.86
13091;DHT22;6611;52.604;13.438;2023-05-10T13:32:26;24.53;32.82
13091;DHT22;6611;52.604;13.438;2023-05-10T13:37:27;24.26;33.46
13091;DHT22;6611;52.604;13.438;2023-05-10T13:42:31;24.46;32.31
13091;DHT22;6611;52.604;13.438;2023-05-10T13:47:33;24.46;32.41
13091;DHT22;6611;52.604;13.438;2023-05-10T13:52:35;24.38;31.58
13091;DHT22;6611;52.604;13.438;2023-05-10T13:57:39;24.34;32.32
13091;DHT22;6611;52.604;13.438;2023-05-10T14:02:41;23.89;34.10
13091;DHT22;6611;52.604;13.438;2023-05-10T14:07:42;24.17;33.13
13091;DHT22;6611;52.604;13.438;2023-05-10T14:12:45;24.03;33.24
13091;DHT22;6611;52.604;13.438;2023-05-10T14:17:47;24.41;33.47
13091;DHT22;6611;52.604;13.438;2023-05-10T14:22:49;24.10;33.10
13091;DHT22;6611;52.604;13.438;2023-05-10T14:27:52;23.78;33.83
13091;DHT22;6611;52.604;13.438;2023-05-10T14:32:54;23.99;33.62
13091;DHT22;6611;52.604;13.438;2023-05-10T14:37:58;24.05;32.62
13091;DHT22;6611;52.604;13.438;2023-05-10T14:43:01;24.08;33.51
13091;DHT22;6611;52.604;13.438;2023-05-10T14:48:03;23.95;33.55
13091;DHT22;6611;52.604;13.438;2023-05-10T14:53:06;23.88;33.39
13091;DHT22;6611;52.604;13.438;2023-05-10T14:58:09;24.29;33.41
13091;DHT22;6611;52.604;13.438;2023-05-10T15:03:10;24.33;33.09
13091;DHT22;6611;52.604;13.438;2023-05-10T15:08:12;24.31;32.64
13091;DHT22;6611;52.604;13.438;2023-05-10T15:13:15;24.34;33.19
13091;DHT22;6611;52.604;13.438;2023-05-10T15:18:17;24.12;33.44
13091;DHT22;6611;52.604;13.438;2023-05-10T15:23:18;24.23;31.68
13091;DHT22;6611;52.604;13.438;2023-05-10T15:28:21;24.05;31.79
13091;DHT22;6611;52.604;13.438;2023-05-10T15:33:23;23.75;32.33
13091;DHT22;6611;52.604;13.438;2023-05-10T15:38:25;23.84;33.17
13091;DHT22;6611;52.604;13.438;2023-05-10T15:43:28;23.96;33.53
13091;DHT22;6611;52.604;13.438;2023-05-10T15:48:29;23.65;33.18
13091;DHT22;6611;52.604;13.438;2023-05-10T15:53:31;23.75;33.89
13091;DHT22;6611;52.604;13.438;2023-05-10T15:58:34;23.78;32.85
13091;DHT22;6611;52.604;13.438;2023-05-10T16:03:36;23.71;34.80
13091;DHT22;6611;52.604;13.438;2023-05-10T16:08:38;23.60;34.98
13091;DHT22;6611;52.604;13.438;2023-05-10T16:13:41;23.37;34.76
13091;DHT22;6611;52.604;13.438;2023-05-10T16:18:42;23.31;35.06
13091;DHT22;6611;52.604;13.438;2023-05-10T16:23:44;23.41;36.01
13091;DHT22;6611;52.604;13.438;2023-05-10T16:28:47;23.15;36.24
13091;DHT22;6611;52.604;13.438;2023-05-10T16:33:49;22.88;37.56
13091;DHT22;6611;52.604;13.438;2023-05-10T16:38:51;22.35;38.53
13091;DHT22;6611;52.604;13.438;2023-05-10T16:43:54;22.44;37.34
13091;DHT22;6611;52.604;13.438;2023-05-10T16:48:56;22.23;37.70
13091;DHT22;6611;52.604;13.438;2023-05-10T16:53:59;22.37;38.78
13091;DHT22;6611;52.604;13.438;2023-05-10T16:59:02;22.37;38.76
13091;DHT22;6611;52.604;13.438;2023-05-10T17:04:03;22.21;44.26
13091;DHT22;6611;52.604;13.438;2023-05-10T17:09:05;21.91;51.93
13091;DHT22;6611;52.604;13.438;2023-05-10T17:14:08;21.75;52.34
13091;DHT22;6611;52.604;13.438;2023-05-10T17:19:10;21.34;53.96
13091;DHT22;6611;52.604;13.438;2023-05-10T17:24:12;21.13;55.29
13091;DHT22;6611;52.604;13.438;2023-05-10T17:29:15;20.75;57.26
13091;DHT22;6611;52.604;13.438;2023-05-10T17:34:17;20.68;56.98
13091;DHT22;6611;52.604;13.438;2023-05-10T17:39:19;20.41;58.41
13091;DHT22;6611;52.604;13.438;2023-05-10T17:44:22;20.40;59.20
13091;DHT22;6611;52.604;13.438;2023-05-10T17:49:24;20.26;59.96
13091;DHT22;6611;52.604;13.438;2023-05-10T17:54:28;20.01;61.32
13091;DHT22;6611;52.604;13.438;2023-05-10T17:59:31;19.77;62.12
13091;DHT22;6611;52.604;13.438;2023-05-10T18:04:32;19.54;63.42
13091;DHT22;6611;52.604;13.438;2023-05-10T18:09:34;19.37;63.60
13091;DHT22;6611;52.604;13.438;2023-05-10T18:14:37;19.19;64.63
13091;DHT22;6611;52.604;13.438;2023-05-10T18:19:39;19.01;65.40
13091;DHT22;6611;52.604;13.438;2023-05-10T18:24:40;18.84;65.46
13091;DHT22;6611;52.604;13.438;2023-05-10T18:29:44;18.65;66.47
13091;DHT22;6611;52.604;13.438;2023-05-10T18:34:46;18.46;67.32
13091;DHT22;6611;52.604;13.438;2023-05-10T18:39:47;18.32;67.65
13091;DHT22;6611;52.604;13.438;2023-05-10T18:44:50;18.09;68.59
13091;DHT22;6611;52.604;13.438;2023-05-10T18:49:52;17.88;69.26
13091;DHT22;6611;52.604;13.438;2023-05-10T18:54:54;17.67;69.74
13091;DHT22;6611;52.604;13.438;2023-05-10T18:59:57;17.47;70.49
13091;DHT22;6611;52.604;13.438;2023-05-10T19:04:59;17.26;71.91
13091;DHT22;6611;52.604;13.438;2023-05-10T19:10:01;17.15;72.18
13091;DHT22;6611;52.604;13.438;2023-05-10T19:15:06;17.02;72.51
13091;DHT22;6611;52.604;13.438;2023-05-10T19:20:09;16.87;73.24
13091;DHT22;6611;52.604;13.438;2023-05-10T19:25:10;16.77;72.81
13091;DHT22;6611;52.604;13.438;2023-05-10T19:30:14;16.61;73.79
13091;DHT22;6611;52.604;13.438;2023-05-10T19:35:16;16.53;74.02
13091;DHT22;6611;52.604;13.438;2023-05-10T19:40:17;16.38;74.46
13091;DHT22;6611;52.604;13.438;2023-05-10T19:45:20;16.21;76.27
13091;DHT22;6611;52.604;13.438;2023-05-10T19:50:22;16.14;76.29
13091;DHT22;6611;52.604;13.438;2023-05-10T19:55:26;16.11;76.52
13091;DHT22;6611;52.604;13.438;2023-05-10T20:00:29;16.01;76.37
13091;DHT22;6611;52.604;13.438;2023-05-10T20:05:31;15.91;76.39
13091;DHT22;6611;52.604;13.438;2023-05-10T20:10:33;15.83;76.82
13091;DHT22;6611;52.604;13.438;2023-05-10T20:15:36;15.66;77.48
13091;DHT22;6611;52.604;13.438;2023-05-10T20:20:38;15.59;77.95
13091;DHT22;6611;52.604;13.438;2023-05-10T20:25:40;15.52;77.91
13091;DHT22;6611;52.604;13.438;2023-05-10T20:30:43;15.49;77.91
13091;DHT22;6611;52.604;13.438;2023-05-10T20:35:45;15.46;77.98
13091;DHT22;6611;52.604;13.438;2023-05-10T20:40:46;15.40;77.74
13091;DHT22;6611;52.604;13.438;2023-05-10T20:45:49;15.29;77.91
13091;DHT22;6611;52.604;13.438;2023-05-10T20:50:53;15.16;78.64
13091;DHT22;6611;52.604;13.438;2023-05-10T20:55:55;15.04;79.25
13091;DHT22;6611;52.604;13.438;2023-05-10T21:00:59;15.01;79.10
13091;DHT22;6611;52.604;13.438;2023-05-10T21:06:01;15.04;78.76
13091;DHT22;6611;52.604;13.438;2023-05-10T21:11:03;14.94;79.42
13091;DHT22;6611;52.604;13.438;2023-05-10T21:16:06;14.77;79.58
13091;DHT22;6611;52.604;13.438;2023-05-10T21:21:08;14.81;79.31
13091;DHT22;6611;52.604;13.438;2023-05-10T21:26:10;14.72;79.22
13091;DHT22;6611;52.604;13.438;2023-05-10T21:31:13;14.57;79.52
13091;DHT22;6611;52.604;13.438;2023-05-10T21:36:15;14.43;80.29
13091;DHT22;6611;52.604;13.438;2023-05-10T21:41:16;14.24;80.73
13091;DHT22;6611;52.604;13.438;2023-05-10T21:46:19;14.10;80.97
13091;DHT22;6611;52.604;13.438;2023-05-10T21:51:21;14.04;81.17
13091;DHT22;6611;52.604;13.438;2023-05-10T21:56:23;14.04;80.73
13091;DHT22;6611;52.604;13.438;2023-05-10T22:01:26;13.95;81.24
13091;DHT22;6611;52.604;13.438;2023-05-10T22:06:28;13.88;81.53
13091;DHT22;6611;52.604;13.438;2023-05-10T22:11:30;13.80;81.61
13091;DHT22;6611;52.604;13.438;2023-05-10T22:16:33;13.74;81.46
13091;DHT22;6611;52.604;13.438;2023-05-10T22:21:34;13.60;81.90
13091;DHT22;6611;52.604;13.438;2023-05-10T22:26:36;13.56;82.41
13091;DHT22;6611;52.604;13.438;2023-05-10T22:31:39;13.43;82.57
13091;DHT22;6611;52.604;13.438;2023-05-10T22:36:41;13.52;82.06
13091;DHT22;6611;52.604;13.438;2023-05-10T22:41:43;13.46;82.35
13091;DHT22;6611;52.604;13.438;2023-05-10T22:46:46;13.39;82.42
13091;DHT22;6611;52.604;13.438;2023-05-10T22:51:48;13.32;82.65
13091;DHT22;6611;52.604;13.438;2023-05-10T22:56:50;13.25;82.75
13091;DHT22;6611;52.604;13.438;2023-05-10T23:01:53;13.22;82.55
13091;DHT22;6611;52.604;13.438;2023-05-10T23:06:55;13.12;82.45
13091;DHT22;6611;52.604;13.438;2023-05-10T23:11:57;13.07;82.62
13091;DHT22;6611;52.604;13.438;2023-05-10T23:17:00;13.00;82.79
13091;DHT22;6611;52.604;13.438;2023-05-10T23:22:01;12.96;82.74
13091;DHT22;6611;52.604;13.438;2023-05-10T23:27:03;12.81;82.95
13091;DHT22;6611;52.604;13.438;2023-05-10T23:32:06;12.76;82.93
13091;DHT22;6611;52.604;13.438;2023-05-10T23:37:08;12.80;82.43
13091;DHT22;6611;52.604;13.438;2023-05-10T23:42:09;12.67;82.84
13091;DHT22;6611;52.604;13.438;2023-05-10T23:47:12;12.57;83.36
13091;DHT22;6611;52.604;13.438;2023-05-10T23:52:14;12.56;83.28
13091;DHT22;6611;52.604;13.438;2023-05-10T23:57:16;12.53;83.12
